Nearby METAR Reports

 

PAEN - Kenai, Alaska, USA
Distance from station: ESE 2mi, 4km
Updated: Thu, 28-Oct-2021 6:57am AKDT
Light snow, Mist, Overcast
Light snow, Mist, Overcast
 Wind from NNE
Wind: NNE 18 mph , 30 km/h, Gust: 26 mph , 43 km/h
Temperature: 32°F , 0°C
Wind Chill: 21°F , -6°C
Dew Point: 28°F , -2°C
Humidity: 87%
Barometer: 29.47 inHg , 998 hPa
Summary: Light snow, Mist
Clouds: Overcast
Visibility: 2 1/2 miles , 4 km
Cloud details: Mostly cloudy 2400 ft
Overcast 3200 ft
2021/10/28 14:57 PAEN 281457Z 02016G23KT 2 1/2SM -SN BR BKN024 OVC032 00/M02 A2947 RMK AO2 P0000 T00001022
PASX - Soldotna, Alaska, USA
Distance from station: SE 12mi, 19km
Updated: Thu, 28-Oct-2021 7:18am AKDT
Light snow, Mist, Overcast
Light snow, Mist, Overcast
 Wind from NNE
Wind: NNE 7 mph , 11 km/h
Temperature: 30°F , -1°C
Wind Chill: 23°F , -5°C
Dew Point: 27°F , -3°C
Humidity: 86%
Barometer: 29.50 inHg , 999 hPa
Summary: Light snow, Mist
Clouds: Overcast
Visibility: 2 1/2 miles , 4 km
Cloud details: Partly cloudy 1200 ft
Mostly cloudy 2800 ft
Overcast 4000 ft
2021/10/28 15:18 PASX 281518Z AUTO 03006KT 2 1/2SM -SN BR SCT012 BKN028 OVC040 M01/M03 A2950 RMK AO2 VIS 1 1/2V5 P0000 FZRANO
 
PANC - Anchorage Intl, Alaska, USA
Distance from station: NE 59mi, 96km
Updated: Thu, 28-Oct-2021 6:53am AKDT
Mostly cloudy
Mostly cloudy
 Wind from N
Wind: N 6 mph , 9 km/h
Temperature: 28°F , -2°C
Wind Chill: 21°F , -6°C
Dew Point: 21°F , -6°C
Humidity: 74%
Barometer: 29.51 inHg , 999.3 hPa
Clouds: Mostly cloudy
Visibility: 10 miles , 16 km
Cloud details: Few Clouds 7000 ft
Partly cloudy 9000 ft
Mostly cloudy 10000 ft
2021/10/28 14:53 PANC 281453Z 36005KT 10SM FEW070 SCT090 BKN100 M02/M06 A2951 RMK AO2 SLP994 T10171061 58012
PALH - Anchorage/Lake H, Alaska, USA
Distance from station: NE 61mi, 99km
Updated: Thu, 28-Oct-2021 6:53am AKDT
Few Clouds
Few Clouds
 Wind from NNE
Wind: NNE 9 mph , 15 km/h
Temperature: 28°F , -2°C
Wind Chill: 19°F , -7°C
Dew Point: 21°F , -6°C
Humidity: 74%
Barometer: 29.52 inHg , 999.7 hPa
Clouds: Few Clouds
Visibility: 10 miles , 16 km
Cloud details: Few Clouds 11000 ft
2021/10/28 14:53 PALH 281453Z 03008KT 10SM FEW110 M02/M06 A2952 RMK AO2 SLP997 T10171056 58012
 
PAHO - Homer, Alaska, USA
Distance from station: S 66mi, 106km
Updated: Thu, 28-Oct-2021 6:53am AKDT
Mostly cloudy
Mostly cloudy
 Wind from E
Wind: E 6 mph , 9 km/h
Temperature: 34°F , 1°C
Wind Chill: 29°F , -2°C
Dew Point: 34°F , 1°C
Humidity: 100%
Barometer: 29.41 inHg , 995.9 hPa
Clouds: Mostly cloudy
Visibility: 10 miles , 16 km
Cloud details: Mostly cloudy 4000 ft
2021/10/28 14:53 PAHO 281453Z 09005KT 10SM BKN040 01/01 A2941 RMK AO2 SLP961 60005 T00110006 56008
PAMR - Anchorage/Merril, Alaska, USA
Distance from station: NE 66mi, 106km
Updated: Thu, 28-Oct-2021 6:53am AKDT
Overcast
Overcast
 Wind from N
Wind: N 6 mph , 9 km/h
Temperature: 28°F , -2°C
Wind Chill: 21°F , -6°C
Dew Point: 23°F , -5°C
Humidity: 80%
Barometer: 29.51 inHg , 999.3 hPa
Clouds: Overcast
Visibility: 10 miles , 16 km
Cloud details: Few Clouds 2000 ft
Partly cloudy 12000 ft
Overcast 20000 ft
2021/10/28 14:53 PAMR 281453Z 36005KT 10SM FEW020 SCT120 OVC200 M02/M05 A2951 RMK AO2 SLP994 T10221050 58014
 
PAED - Elmendorf Afb, Alaska, USA
Distance from station: NE 69mi, 110km
Updated: Thu, 28-Oct-2021 6:56am AKDT
Mostly cloudy
Mostly cloudy
 Wind from N
Wind: N 6 mph , 9 km/h
Temperature: 28°F , -2°C
Wind Chill: 21°F , -6°C
Dew Point: 25°F , -4°C
Humidity: 86%
Barometer: 29.50 inHg , 999 hPa
Clouds: Mostly cloudy
Visibility: 10 miles , 16 km
Cloud details: Few Clouds 4000 ft
Mostly cloudy 12000 ft
Mostly cloudy 14000 ft
2021/10/28 14:56 PAED 281456Z 01005KT 10SM FEW040 BKN120 BKN140 M02/M04 A2950 RMK AO2A SLP987 T10251044 57013 $
PAWD - Seward, Alaska, USA
Distance from station: ESE 71mi, 115km
Updated: Thu, 28-Oct-2021 7:01am AKDT
Snow, Fog, Overcast
Snow, Fog, Overcast
 Wind from calm
Wind: Calm
Temperature: 34°F , 1°C
Dew Point: 32°F , 0°C
Humidity: 93%
Barometer: 29.49 inHg , 998.6 hPa
Summary: Snow, Fog
Clouds: Overcast
Visibility: 1/2 mile , 0.8 km
Cloud details: Overcast 800 ft
2021/10/28 15:01 PAWD 281501Z AUTO 00000KT 1/2SM SN FG VV008 01/00 A2949 RMK AO2 P0000 T00060000 TSNO
 
PASC - Deadhorse, Alaska, USA
Distance from station: ENE 670mi, 1078km
Updated: Thu, 28-Oct-2021 7:11am AKDT
Mist, Overcast
Mist, Overcast
 Wind from SW
Wind: SW 6 mph , 9 km/h
Temperature: 19°F , -7°C
Wind Chill: 11°F , -12°C
Dew Point: 18°F , -8°C
Humidity: 93%
Barometer: 29.65 inHg , 1004.1 hPa
Summary: Mist
Clouds: Overcast
Visibility: 5 miles , 8 km
Cloud details: Few Clouds 300 ft
Overcast 1300 ft
2021/10/28 15:11 PASC 281511Z 23005KT 5SM BR FEW003 OVC013 M07/M08 A2965 RMK AO2 T10671083
PAAD - Point Thomson, Alaska, USA
Distance from station: ENE 680mi, 1094km
Updated: Thu, 28-Oct-2021 7:15am AKDT
Overcast
Overcast
 Wind from WSW
Wind: WSW 5 mph , 7 km/h
Temperature: 14°F , -10°C
Wind Chill: 6°F , -14°C
Dew Point: 12°F , -11°C
Humidity: 92%
Barometer: 29.66 inHg , 1004.4 hPa
Clouds: Overcast
Visibility: 10 miles , 16 km
Cloud details: Overcast 400 ft
2021/10/28 15:15 PAAD 281515Z AUTO 25004KT 10SM OVC004 M10/M11 A2966 RMK AO2 T11051114


kenaipeople.com website

Dans Automotive

Lower Peninsula Power Sports

Freddies RoadHouse

Alaska Weather Net